PWSweather.com
Personal Weather Stations
Station Observations

OlomoucCZ

Lat: 49.5936202181, Lon: 17.2276005149

Elevation: 752

Station Type: Davis Vantage Pro 2 Activ

http://infopocasi-olomouc.cz

High Low Average
Temperature 39.6°F4.2°C 29.2°F-1.6°C 34.9°F1.6°C
Dew Point 36.6°F2.6°C 28.5°F-1.9°C 32.9°F0.5°C
Winds 10.4 mph 16.7 kmh Calm Calm 4.0 mph SW6.4 kmh SW
Wind Gusts 16.1 mph25.9 kmh -- 6.0 mph9.7 kmh
Humidity 98% 82% 93%
Pressure 30.14 in1020.7 mb 29.88 in1011.9 mb -
Precipitation 0.06 in1.5 mm - -
Hour Temp Dew Point Humidity Winds Wind Gusts Pressure Precip Precip Rate Daily Precip Total
12:00 AM 29.2°F-1.6°C 28.5°F-1.9°C 97% 3.5 mph ESE5.6 kmh ESE 4.6 mph7.4 kmh 30.14 in1020.7 mb - 0.00 in0.0 mm 0.00 in0.0 mm
12:30 AM 29.5°F-1.4°C 28.7°F-1.8°C 97% 4.6 mph ESE7.4 kmh ESE 6.9 mph11.1 kmh 30.14 in1020.7 mb - 0.00 in0.0 mm 0.00 in0.0 mm
01:00 AM 29.6°F-1.3°C 28.9°F-1.7°C 97% 3.5 mph SE5.6 kmh SE 3.5 mph5.6 kmh 30.13 in1020.3 mb - 0.00 in0.0 mm 0.00 in0.0 mm
01:30 AM 29.8°F-1.2°C 29.1°F-1.6°C 97% Calm Calm -- 30.13 in1020.3 mb - 0.00 in0.0 mm 0.00 in0.0 mm
02:00 AM 30.0°F-1.1°C 29.3°F-1.5°C 97% 1.2 mph SE1.9 kmh SE 2.3 mph3.7 kmh 30.12 in1020.0 mb - 0.00 in0.0 mm 0.00 in0.0 mm
02:30 AM 30.3°F-0.9°C 29.5°F-1.4°C 97% 2.3 mph SE3.7 kmh SE 3.5 mph5.6 kmh 30.10 in1019.3 mb - 0.00 in0.0 mm 0.00 in0.0 mm
03:00 AM 30.2°F-1.0°C 29.5°F-1.4°C 97% Calm Calm 2.3 mph3.7 kmh 30.10 in1019.3 mb - 0.00 in0.0 mm 0.00 in0.0 mm
03:30 AM 30.5°F-0.8°C 29.8°F-1.2°C 97% 1.2 mph SE1.9 kmh SE 3.5 mph5.6 kmh 30.08 in1018.6 mb - 0.00 in0.0 mm 0.00 in0.0 mm
04:00 AM 30.8°F-0.7°C 30.0°F-1.1°C 97% 2.3 mph ESE3.7 kmh ESE 3.5 mph5.6 kmh 30.06 in1017.9 mb - 0.00 in0.0 mm 0.00 in0.0 mm
04:30 AM 31.0°F-0.6°C 30.2°F-1.0°C 97% 2.3 mph ESE3.7 kmh ESE 2.3 mph3.7 kmh 30.04 in1017.3 mb - 0.00 in0.0 mm 0.00 in0.0 mm
05:00 AM 31.2°F-0.4°C 30.4°F-0.9°C 97% 2.3 mph ESE3.7 kmh ESE 3.5 mph5.6 kmh 30.02 in1016.6 mb - 0.00 in0.0 mm 0.00 in0.0 mm
05:30 AM 31.6°F-0.2°C 31.1°F-0.5°C 98% Calm Calm 2.3 mph3.7 kmh 30.01 in1016.3 mb - 0.00 in0.0 mm 0.00 in0.0 mm
06:00 AM 32.0°F0.0°C 31.5°F-0.3°C 98% 1.2 mph ESE1.9 kmh ESE 3.5 mph5.6 kmh 29.99 in1015.6 mb - 0.00 in0.0 mm 0.00 in0.0 mm
06:30 AM 32.4°F0.2°C 31.9°F-0.1°C 98% 2.3 mph ESE3.7 kmh ESE 3.5 mph5.6 kmh 29.97 in1014.9 mb - 0.00 in0.0 mm 0.00 in0.0 mm
07:00 AM 32.3°F0.2°C 31.8°F-0.1°C 98% 2.3 mph SE3.7 kmh SE 3.5 mph5.6 kmh 29.95 in1014.2 mb - 0.00 in0.0 mm 0.00 in0.0 mm
07:30 AM 32.5°F0.3°C 32.0°F0.0°C 98% 2.3 mph SE3.7 kmh SE 2.3 mph3.7 kmh 29.95 in1014.2 mb - 0.00 in0.0 mm 0.00 in0.0 mm
08:00 AM 33.1°F0.6°C 32.6°F0.3°C 98% 1.2 mph SE1.9 kmh SE 3.5 mph5.6 kmh 29.95 in1014.2 mb - 0.00 in0.0 mm 0.00 in0.0 mm
08:30 AM 33.2°F0.7°C 32.7°F0.4°C 98% Calm Calm -- 29.93 in1013.5 mb - 0.00 in0.0 mm 0.00 in0.0 mm
09:00 AM 33.4°F0.8°C 32.9°F0.5°C 98% Calm Calm -- 29.93 in1013.5 mb - 0.00 in0.0 mm 0.00 in0.0 mm
09:30 AM 33.8°F1.0°C 33.3°F0.7°C 98% Calm Calm 3.5 mph5.6 kmh 29.92 in1013.2 mb - 0.00 in0.0 mm 0.00 in0.0 mm
10:00 AM 36.0°F2.2°C 35.2°F1.8°C 97% 4.6 mph NW7.4 kmh NW 9.2 mph14.8 kmh 29.92 in1013.2 mb - 0.00 in0.0 mm 0.00 in0.0 mm
10:30 AM 36.2°F2.3°C 34.9°F1.6°C 95% 5.8 mph W9.3 kmh W 9.2 mph14.8 kmh 29.90 in1012.5 mb - 0.00 in0.0 mm 0.00 in0.0 mm
11:00 AM 36.7°F2.6°C 35.1°F1.7°C 94% 3.5 mph WNW5.6 kmh WNW 9.2 mph14.8 kmh 29.90 in1012.5 mb - 0.00 in0.0 mm 0.00 in0.0 mm
11:30 AM 37.1°F2.8°C 35.3°F1.8°C 93% 4.6 mph NW7.4 kmh NW 8.1 mph13.0 kmh 29.89 in1012.2 mb - 0.00 in0.0 mm 0.00 in0.0 mm
12:00 PM 38.0°F3.3°C 35.9°F2.2°C 92% 5.8 mph NW9.3 kmh NW 8.1 mph13.0 kmh 29.88 in1011.9 mb - 0.01 in0.3 mm 0.01 in0.3 mm
12:30 PM 38.0°F3.3°C 35.6°F2.0°C 91% 9.2 mph WNW14.8 kmh WNW 11.5 mph18.5 kmh 29.88 in1011.9 mb - 0.05 in1.3 mm 0.05 in1.3 mm
01:00 PM 38.5°F3.6°C 36.1°F2.3°C 91% 6.9 mph NW11.1 kmh NW 11.5 mph18.5 kmh 29.88 in1011.9 mb - 0.05 in1.3 mm 0.06 in1.5 mm
01:30 PM 39.1°F3.9°C 36.1°F2.3°C 89% 4.6 mph NW7.4 kmh NW 8.1 mph13.0 kmh 29.89 in1012.2 mb - 0.01 in0.3 mm 0.06 in1.5 mm
02:00 PM 39.3°F4.1°C 36.3°F2.4°C 89% 6.9 mph NNW11.1 kmh NNW 11.5 mph18.5 kmh 29.89 in1012.2 mb - 0.00 in0.0 mm 0.06 in1.5 mm
02:30 PM 39.6°F4.2°C 36.6°F2.6°C 89% 3.5 mph WNW5.6 kmh WNW 5.8 mph9.3 kmh 29.90 in1012.5 mb - 0.00 in0.0 mm 0.06 in1.5 mm
03:00 PM 39.0°F3.9°C 36.6°F2.6°C 91% 2.3 mph WNW3.7 kmh WNW 4.6 mph7.4 kmh 29.92 in1013.2 mb - 0.00 in0.0 mm 0.06 in1.5 mm
03:30 PM 38.6°F3.7°C 36.2°F2.3°C 91% 4.6 mph 7.4 kmh 4.6 mph7.4 kmh 29.93 in1013.5 mb - 0.00 in0.0 mm 0.06 in1.5 mm
04:00 PM 38.5°F3.6°C 36.4°F2.4°C 92% 9.2 mph NW14.8 kmh NW 11.5 mph18.5 kmh 29.94 in1013.9 mb - 0.00 in0.0 mm 0.06 in1.5 mm
04:30 PM 38.6°F3.7°C 36.2°F2.3°C 91% 4.6 mph NW7.4 kmh NW 8.1 mph13.0 kmh 29.95 in1014.2 mb - 0.00 in0.0 mm 0.06 in1.5 mm
05:00 PM 38.5°F3.6°C 36.1°F2.3°C 91% 8.1 mph N13.0 kmh N 11.5 mph18.5 kmh 29.96 in1014.6 mb - 0.00 in0.0 mm 0.06 in1.5 mm
05:30 PM 38.1°F3.4°C 35.4°F1.9°C 90% 6.9 mph N11.1 kmh N 10.4 mph16.7 kmh 29.98 in1015.2 mb - 0.00 in0.0 mm 0.06 in1.5 mm
06:00 PM 37.5°F3.1°C 33.7°F0.9°C 86% 8.1 mph NNW13.0 kmh NNW 11.5 mph18.5 kmh 29.98 in1015.2 mb - 0.00 in0.0 mm 0.06 in1.5 mm
06:30 PM 37.2°F2.9°C 32.5°F0.3°C 83% 10.4 mph NNW16.7 kmh NNW 16.1 mph25.9 kmh 29.99 in1015.6 mb - 0.00 in0.0 mm 0.06 in1.5 mm
07:00 PM 37.1°F2.8°C 32.1°F0.1°C 82% 5.8 mph NW9.3 kmh NW 8.1 mph13.0 kmh 30.01 in1016.3 mb - 0.00 in0.0 mm 0.06 in1.5 mm
07:30 PM 36.6°F2.6°C 32.8°F0.4°C 86% 6.9 mph NW11.1 kmh NW 9.2 mph14.8 kmh 30.02 in1016.6 mb - 0.00 in0.0 mm 0.06 in1.5 mm
08:00 PM 35.9°F2.2°C 33.3°F0.7°C 90% 2.3 mph WNW3.7 kmh WNW 3.5 mph5.6 kmh 30.02 in1016.6 mb - 0.00 in0.0 mm 0.06 in1.5 mm
08:30 PM 36.5°F2.5°C 33.0°F0.6°C 87% 3.5 mph WNW5.6 kmh WNW 5.8 mph9.3 kmh 30.02 in1016.6 mb - 0.00 in0.0 mm 0.06 in1.5 mm
09:00 PM 36.4°F2.4°C 32.0°F0.0°C 84% 3.5 mph W5.6 kmh W 5.8 mph9.3 kmh 30.02 in1016.6 mb - 0.00 in0.0 mm 0.06 in1.5 mm
09:30 PM 36.4°F2.4°C 32.0°F0.0°C 84% 4.6 mph WNW7.4 kmh WNW 4.6 mph7.4 kmh 30.02 in1016.6 mb - 0.00 in0.0 mm 0.06 in1.5 mm
10:00 PM 37.0°F2.8°C 32.9°F0.5°C 85% 5.8 mph NW9.3 kmh NW 9.2 mph14.8 kmh 30.03 in1016.9 mb - 0.00 in0.0 mm 0.06 in1.5 mm
10:30 PM 36.5°F2.5°C 33.0°F0.6°C 87% 3.5 mph WNW5.6 kmh WNW 3.5 mph5.6 kmh 30.02 in1016.6 mb - 0.00 in0.0 mm 0.06 in1.5 mm
11:30 PM 36.0°F2.2°C 33.1°F0.6°C 89% 4.6 mph NW7.4 kmh NW 5.8 mph9.3 kmh 30.02 in1016.6 mb - 0.00 in0.0 mm 0.06 in1.5 mm